sensor_id;sensor_type;location;lat;lon;timestamp;temperature;humidity
13462;DHT22;6803;45.264;5.468;2022-08-19T00:02:47;18.80;99.90
13462;DHT22;6803;45.264;5.468;2022-08-19T00:05:19;18.80;99.90
13462;DHT22;6803;45.264;5.468;2022-08-19T00:07:50;18.90;99.90
13462;DHT22;6803;45.264;5.468;2022-08-19T00:10:21;18.90;99.90
13462;DHT22;6803;45.264;5.468;2022-08-19T00:12:53;18.90;99.90
13462;DHT22;6803;45.264;5.468;2022-08-19T00:15:24;18.90;99.90
13462;DHT22;6803;45.264;5.468;2022-08-19T00:17:55;18.80;99.90
13462;DHT22;6803;45.264;5.468;2022-08-19T00:20:44;18.80;99.90
13462;DHT22;6803;45.264;5.468;2022-08-19T00:25:53;18.70;99.90
13462;DHT22;6803;45.264;5.468;2022-08-19T00:28:23;18.70;99.90
13462;DHT22;6803;45.264;5.468;2022-08-19T00:30:54;18.70;99.90
13462;DHT22;6803;45.264;5.468;2022-08-19T00:33:25;18.70;99.90
13462;DHT22;6803;45.264;5.468;2022-08-19T00:35:57;18.70;99.90
13462;DHT22;6803;45.264;5.468;2022-08-19T00:38:28;18.70;99.90
13462;DHT22;6803;45.264;5.468;2022-08-19T00:41:00;18.70;99.90
13462;DHT22;6803;45.264;5.468;2022-08-19T00:43:31;18.70;99.90
13462;DHT22;6803;45.264;5.468;2022-08-19T00:46:02;18.70;99.90
13462;DHT22;6803;45.264;5.468;2022-08-19T00:48:35;18.70;99.90
13462;DHT22;6803;45.264;5.468;2022-08-19T00:51:06;18.70;99.90
13462;DHT22;6803;45.264;5.468;2022-08-19T00:53:37;18.80;99.90
13462;DHT22;6803;45.264;5.468;2022-08-19T00:56:08;18.80;99.90
13462;DHT22;6803;45.264;5.468;2022-08-19T00:58:40;18.70;99.90
13462;DHT22;6803;45.264;5.468;2022-08-19T01:01:11;18.80;99.90
13462;DHT22;6803;45.264;5.468;2022-08-19T01:03:43;18.80;99.90
13462;DHT22;6803;45.264;5.468;2022-08-19T01:06:15;18.70;99.90
13462;DHT22;6803;45.264;5.468;2022-08-19T01:08:48;18.70;99.90
13462;DHT22;6803;45.264;5.468;2022-08-19T01:11:18;18.70;99.90
13462;DHT22;6803;45.264;5.468;2022-08-19T01:13:50;18.70;99.90
13462;DHT22;6803;45.264;5.468;2022-08-19T01:16:24;18.70;99.90
13462;DHT22;6803;45.264;5.468;2022-08-19T01:18:55;18.70;99.90
13462;DHT22;6803;45.264;5.468;2022-08-19T01:24:06;18.70;99.90
13462;DHT22;6803;45.264;5.468;2022-08-19T01:26:42;18.70;99.90
13462;DHT22;6803;45.264;5.468;2022-08-19T01:29:14;18.60;99.90
13462;DHT22;6803;45.264;5.468;2022-08-19T01:31:45;18.70;99.90
13462;DHT22;6803;45.264;5.468;2022-08-19T01:34:16;18.70;99.90
13462;DHT22;6803;45.264;5.468;2022-08-19T01:36:48;18.60;99.90
13462;DHT22;6803;45.264;5.468;2022-08-19T01:39:21;18.60;99.90
13462;DHT22;6803;45.264;5.468;2022-08-19T01:41:52;18.60;99.90
13462;DHT22;6803;45.264;5.468;2022-08-19T01:44:24;18.60;99.90
13462;DHT22;6803;45.264;5.468;2022-08-19T01:46:55;18.60;99.90
13462;DHT22;6803;45.264;5.468;2022-08-19T01:49:26;18.60;99.90
13462;DHT22;6803;45.264;5.468;2022-08-19T01:51:58;18.60;99.90
13462;DHT22;6803;45.264;5.468;2022-08-19T01:54:29;18.60;99.90
13462;DHT22;6803;45.264;5.468;2022-08-19T01:59:42;18.50;99.90
13462;DHT22;6803;45.264;5.468;2022-08-19T02:02:13;18.50;99.90
13462;DHT22;6803;45.264;5.468;2022-08-19T02:04:43;18.60;99.90
13462;DHT22;6803;45.264;5.468;2022-08-19T02:07:14;18.60;99.90
13462;DHT22;6803;45.264;5.468;2022-08-19T02:09:45;18.50;99.90
13462;DHT22;6803;45.264;5.468;2022-08-19T02:12:17;18.50;99.90
13462;DHT22;6803;45.264;5.468;2022-08-19T02:14:49;18.50;99.90
13462;DHT22;6803;45.264;5.468;2022-08-19T02:17:20;18.40;99.90
13462;DHT22;6803;45.264;5.468;2022-08-19T02:19:51;18.50;99.90
13462;DHT22;6803;45.264;5.468;2022-08-19T02:22:21;18.50;99.90
13462;DHT22;6803;45.264;5.468;2022-08-19T02:24:52;18.30;99.90
13462;DHT22;6803;45.264;5.468;2022-08-19T02:27:23;18.30;99.90
13462;DHT22;6803;45.264;5.468;2022-08-19T02:29:54;18.20;99.90
13462;DHT22;6803;45.264;5.468;2022-08-19T02:32:25;18.20;99.90
13462;DHT22;6803;45.264;5.468;2022-08-19T02:34:56;18.20;99.90
13462;DHT22;6803;45.264;5.468;2022-08-19T02:37:27;18.10;99.90
13462;DHT22;6803;45.264;5.468;2022-08-19T02:40:34;18.00;99.90
13462;DHT22;6803;45.264;5.468;2022-08-19T02:43:06;18.10;99.90
13462;DHT22;6803;45.264;5.468;2022-08-19T02:45:39;18.00;99.90
13462;DHT22;6803;45.264;5.468;2022-08-19T02:48:10;18.00;99.90
13462;DHT22;6803;45.264;5.468;2022-08-19T02:50:42;18.00;99.90
13462;DHT22;6803;45.264;5.468;2022-08-19T02:53:15;18.00;99.90
13462;DHT22;6803;45.264;5.468;2022-08-19T02:56:06;18.10;99.90
13462;DHT22;6803;45.264;5.468;2022-08-19T02:58:38;18.10;99.90
13462;DHT22;6803;45.264;5.468;2022-08-19T03:01:08;18.10;99.90
13462;DHT22;6803;45.264;5.468;2022-08-19T03:03:40;18.20;99.90
13462;DHT22;6803;45.264;5.468;2022-08-19T03:06:12;18.20;99.90
13462;DHT22;6803;45.264;5.468;2022-08-19T03:08:45;18.20;99.90
13462;DHT22;6803;45.264;5.468;2022-08-19T03:11:18;18.20;99.90
13462;DHT22;6803;45.264;5.468;2022-08-19T03:13:49;18.20;99.90
13462;DHT22;6803;45.264;5.468;2022-08-19T03:16:21;18.20;99.90
13462;DHT22;6803;45.264;5.468;2022-08-19T03:18:53;18.20;99.90
13462;DHT22;6803;45.264;5.468;2022-08-19T03:21:26;18.30;99.90
13462;DHT22;6803;45.264;5.468;2022-08-19T03:23:58;18.30;99.90
13462;DHT22;6803;45.264;5.468;2022-08-19T03:26:29;18.30;99.90
13462;DHT22;6803;45.264;5.468;2022-08-19T03:29:04;18.30;99.90
13462;DHT22;6803;45.264;5.468;2022-08-19T03:31:36;18.20;99.90
13462;DHT22;6803;45.264;5.468;2022-08-19T03:34:10;18.20;99.90
13462;DHT22;6803;45.264;5.468;2022-08-19T03:36:41;18.30;99.90
13462;DHT22;6803;45.264;5.468;2022-08-19T03:39:13;18.30;99.90
13462;DHT22;6803;45.264;5.468;2022-08-19T03:41:45;18.30;99.90
13462;DHT22;6803;45.264;5.468;2022-08-19T03:44:18;18.30;99.90
13462;DHT22;6803;45.264;5.468;2022-08-19T03:46:51;18.30;99.90
13462;DHT22;6803;45.264;5.468;2022-08-19T03:49:24;18.30;99.90
13462;DHT22;6803;45.264;5.468;2022-08-19T03:51:58;18.30;99.90
13462;DHT22;6803;45.264;5.468;2022-08-19T03:54:30;18.30;99.90
13462;DHT22;6803;45.264;5.468;2022-08-19T03:57:01;18.30;99.90
13462;DHT22;6803;45.264;5.468;2022-08-19T03:59:35;18.30;99.90
13462;DHT22;6803;45.264;5.468;2022-08-19T04:02:09;18.30;99.90
13462;DHT22;6803;45.264;5.468;2022-08-19T04:04:42;18.30;99.90
13462;DHT22;6803;45.264;5.468;2022-08-19T04:07:14;18.30;99.90
13462;DHT22;6803;45.264;5.468;2022-08-19T04:09:47;18.30;99.90
13462;DHT22;6803;45.264;5.468;2022-08-19T04:12:18;18.30;99.90
13462;DHT22;6803;45.264;5.468;2022-08-19T04:14:49;18.30;99.90
13462;DHT22;6803;45.264;5.468;2022-08-19T04:17:20;18.30;99.90
13462;DHT22;6803;45.264;5.468;2022-08-19T04:19:51;18.30;99.90
13462;DHT22;6803;45.264;5.468;2022-08-19T04:22:22;18.30;99.90
13462;DHT22;6803;45.264;5.468;2022-08-19T04:24:54;18.30;99.90
13462;DHT22;6803;45.264;5.468;2022-08-19T04:27:25;18.40;99.90
13462;DHT22;6803;45.264;5.468;2022-08-19T04:29:55;18.30;99.90
13462;DHT22;6803;45.264;5.468;2022-08-19T04:32:26;18.30;99.90
13462;DHT22;6803;45.264;5.468;2022-08-19T04:34:56;18.20;99.90
13462;DHT22;6803;45.264;5.468;2022-08-19T04:37:30;18.20;99.90
13462;DHT22;6803;45.264;5.468;2022-08-19T04:40:07;18.20;99.90
13462;DHT22;6803;45.264;5.468;2022-08-19T04:42:55;18.20;99.90
13462;DHT22;6803;45.264;5.468;2022-08-19T04:45:25;18.20;99.90
13462;DHT22;6803;45.264;5.468;2022-08-19T04:47:58;18.20;99.90
13462;DHT22;6803;45.264;5.468;2022-08-19T04:50:50;18.20;99.90
13462;DHT22;6803;45.264;5.468;2022-08-19T04:53:23;18.20;99.90
13462;DHT22;6803;45.264;5.468;2022-08-19T04:55:53;18.10;99.90
13462;DHT22;6803;45.264;5.468;2022-08-19T04:58:27;18.10;99.90
13462;DHT22;6803;45.264;5.468;2022-08-19T05:03:35;18.10;99.90
13462;DHT22;6803;45.264;5.468;2022-08-19T05:06:11;18.00;99.90
13462;DHT22;6803;45.264;5.468;2022-08-19T05:08:42;18.00;99.90
13462;DHT22;6803;45.264;5.468;2022-08-19T05:11:15;18.00;99.90
13462;DHT22;6803;45.264;5.468;2022-08-19T05:13:48;18.00;99.90
13462;DHT22;6803;45.264;5.468;2022-08-19T05:16:21;18.10;99.90
13462;DHT22;6803;45.264;5.468;2022-08-19T05:18:53;18.10;99.90
13462;DHT22;6803;45.264;5.468;2022-08-19T05:21:42;18.10;99.90
13462;DHT22;6803;45.264;5.468;2022-08-19T05:24:31;18.00;99.90
13462;DHT22;6803;45.264;5.468;2022-08-19T05:27:04;18.10;99.90
13462;DHT22;6803;45.264;5.468;2022-08-19T05:29:35;18.10;99.90
13462;DHT22;6803;45.264;5.468;2022-08-19T05:32:07;18.10;99.90
13462;DHT22;6803;45.264;5.468;2022-08-19T05:34:39;18.10;99.90
13462;DHT22;6803;45.264;5.468;2022-08-19T05:37:10;18.10;99.90
13462;DHT22;6803;45.264;5.468;2022-08-19T05:39:41;18.10;99.90
13462;DHT22;6803;45.264;5.468;2022-08-19T05:42:13;18.10;99.90
13462;DHT22;6803;45.264;5.468;2022-08-19T05:44:45;18.20;99.90
13462;DHT22;6803;45.264;5.468;2022-08-19T05:47:17;18.20;99.90
13462;DHT22;6803;45.264;5.468;2022-08-19T05:49:49;18.20;99.90
13462;DHT22;6803;45.264;5.468;2022-08-19T05:52:20;18.20;99.90
13462;DHT22;6803;45.264;5.468;2022-08-19T05:54:52;18.20;99.90
13462;DHT22;6803;45.264;5.468;2022-08-19T05:57:25;18.20;99.90
13462;DHT22;6803;45.264;5.468;2022-08-19T05:59:58;18.20;99.90
13462;DHT22;6803;45.264;5.468;2022-08-19T06:02:30;18.20;99.90
13462;DHT22;6803;45.264;5.468;2022-08-19T06:05:01;18.10;99.90
13462;DHT22;6803;45.264;5.468;2022-08-19T06:07:32;18.10;99.90
13462;DHT22;6803;45.264;5.468;2022-08-19T06:10:04;18.10;99.90
13462;DHT22;6803;45.264;5.468;2022-08-19T06:12:35;18.20;99.90
13462;DHT22;6803;45.264;5.468;2022-08-19T06:15:10;18.20;99.90
13462;DHT22;6803;45.264;5.468;2022-08-19T06:17:42;18.20;99.90
13462;DHT22;6803;45.264;5.468;2022-08-19T06:20:15;18.30;99.90
13462;DHT22;6803;45.264;5.468;2022-08-19T06:22:49;18.30;99.90
13462;DHT22;6803;45.264;5.468;2022-08-19T06:25:20;18.30;99.90
13462;DHT22;6803;45.264;5.468;2022-08-19T06:27:54;18.30;99.90
13462;DHT22;6803;45.264;5.468;2022-08-19T06:30:26;18.30;99.90
13462;DHT22;6803;45.264;5.468;2022-08-19T06:32:57;18.30;99.90
13462;DHT22;6803;45.264;5.468;2022-08-19T06:35:29;18.30;99.90
13462;DHT22;6803;45.264;5.468;2022-08-19T06:38:00;18.20;99.90
13462;DHT22;6803;45.264;5.468;2022-08-19T06:40:51;18.40;99.90
13462;DHT22;6803;45.264;5.468;2022-08-19T06:43:23;18.40;99.90
13462;DHT22;6803;45.264;5.468;2022-08-19T06:45:55;18.30;99.90
13462;DHT22;6803;45.264;5.468;2022-08-19T06:48:27;18.40;99.90
13462;DHT22;6803;45.264;5.468;2022-08-19T06:50:58;18.40;99.90
13462;DHT22;6803;45.264;5.468;2022-08-19T06:53:28;18.40;99.90
13462;DHT22;6803;45.264;5.468;2022-08-19T06:55:59;18.50;99.90
13462;DHT22;6803;45.264;5.468;2022-08-19T06:58:32;18.60;99.90
13462;DHT22;6803;45.264;5.468;2022-08-19T07:01:04;18.50;99.90
13462;DHT22;6803;45.264;5.468;2022-08-19T07:03:38;18.40;99.90
13462;DHT22;6803;45.264;5.468;2022-08-19T07:06:11;18.40;99.90
13462;DHT22;6803;45.264;5.468;2022-08-19T07:08:47;18.50;99.90
13462;DHT22;6803;45.264;5.468;2022-08-19T07:11:19;18.50;99.90
13462;DHT22;6803;45.264;5.468;2022-08-19T07:13:51;18.40;99.90
13462;DHT22;6803;45.264;5.468;2022-08-19T07:16:22;18.50;99.90
13462;DHT22;6803;45.264;5.468;2022-08-19T07:18:55;18.50;99.90
13462;DHT22;6803;45.264;5.468;2022-08-19T07:21:28;18.50;99.90
13462;DHT22;6803;45.264;5.468;2022-08-19T07:24:00;18.60;99.90
13462;DHT22;6803;45.264;5.468;2022-08-19T07:26:38;18.70;99.90
13462;DHT22;6803;45.264;5.468;2022-08-19T07:29:08;18.80;99.90
13462;DHT22;6803;45.264;5.468;2022-08-19T07:31:41;19.00;99.90
13462;DHT22;6803;45.264;5.468;2022-08-19T07:34:12;19.00;99.90
13462;DHT22;6803;45.264;5.468;2022-08-19T07:36:45;19.10;99.90
13462;DHT22;6803;45.264;5.468;2022-08-19T07:39:18;19.10;99.90
13462;DHT22;6803;45.264;5.468;2022-08-19T07:41:50;19.30;99.90
13462;DHT22;6803;45.264;5.468;2022-08-19T07:44:21;19.40;99.90
13462;DHT22;6803;45.264;5.468;2022-08-19T07:46:54;19.50;99.90
13462;DHT22;6803;45.264;5.468;2022-08-19T07:49:25;19.60;99.90
13462;DHT22;6803;45.264;5.468;2022-08-19T07:51:58;19.40;99.90
13462;DHT22;6803;45.264;5.468;2022-08-19T07:54:32;19.50;99.90
13462;DHT22;6803;45.264;5.468;2022-08-19T07:57:05;19.60;99.90
13462;DHT22;6803;45.264;5.468;2022-08-19T07:59:37;19.70;99.90
13462;DHT22;6803;45.264;5.468;2022-08-19T08:02:07;19.60;99.90
13462;DHT22;6803;45.264;5.468;2022-08-19T08:04:38;19.70;99.90
13462;DHT22;6803;45.264;5.468;2022-08-19T08:07:27;19.70;99.90
13462;DHT22;6803;45.264;5.468;2022-08-19T08:10:15;19.70;99.90
13462;DHT22;6803;45.264;5.468;2022-08-19T08:12:48;19.80;99.90
13462;DHT22;6803;45.264;5.468;2022-08-19T08:15:20;20.10;99.90
13462;DHT22;6803;45.264;5.468;2022-08-19T08:17:53;20.20;99.90
13462;DHT22;6803;45.264;5.468;2022-08-19T08:20:23;20.20;99.90
13462;DHT22;6803;45.264;5.468;2022-08-19T08:22:54;20.20;99.90
13462;DHT22;6803;45.264;5.468;2022-08-19T08:25:43;20.20;99.90
13462;DHT22;6803;45.264;5.468;2022-08-19T08:28:15;20.40;99.90
13462;DHT22;6803;45.264;5.468;2022-08-19T08:30:47;20.60;99.90
13462;DHT22;6803;45.264;5.468;2022-08-19T08:33:20;20.40;99.90
13462;DHT22;6803;45.264;5.468;2022-08-19T08:35:53;20.30;99.90
13462;DHT22;6803;45.264;5.468;2022-08-19T08:38:24;20.30;99.90
13462;DHT22;6803;45.264;5.468;2022-08-19T08:40:59;20.20;99.90
13462;DHT22;6803;45.264;5.468;2022-08-19T08:43:33;20.20;99.90
13462;DHT22;6803;45.264;5.468;2022-08-19T08:46:08;20.10;99.90
13462;DHT22;6803;45.264;5.468;2022-08-19T08:48:42;20.20;99.90
13462;DHT22;6803;45.264;5.468;2022-08-19T08:51:17;20.10;99.90
13462;DHT22;6803;45.264;5.468;2022-08-19T08:53:50;20.00;99.90
13462;DHT22;6803;45.264;5.468;2022-08-19T08:56:24;20.00;99.90
13462;DHT22;6803;45.264;5.468;2022-08-19T08:58:58;20.10;99.90
13462;DHT22;6803;45.264;5.468;2022-08-19T09:01:31;20.10;99.90
13462;DHT22;6803;45.264;5.468;2022-08-19T09:04:03;20.00;99.90
13462;DHT22;6803;45.264;5.468;2022-08-19T09:06:40;19.90;99.90
13462;DHT22;6803;45.264;5.468;2022-08-19T09:09:17;19.70;99.90
13462;DHT22;6803;45.264;5.468;2022-08-19T09:11:55;19.70;99.90
13462;DHT22;6803;45.264;5.468;2022-08-19T09:14:43;19.70;99.90
13462;DHT22;6803;45.264;5.468;2022-08-19T09:17:16;19.80;99.90
13462;DHT22;6803;45.264;5.468;2022-08-19T09:19:53;20.00;99.90
13462;DHT22;6803;45.264;5.468;2022-08-19T09:22:25;19.90;99.90
13462;DHT22;6803;45.264;5.468;2022-08-19T09:24:56;19.80;99.90
13462;DHT22;6803;45.264;5.468;2022-08-19T09:27:27;19.60;99.90
13462;DHT22;6803;45.264;5.468;2022-08-19T09:30:00;19.60;99.90
13462;DHT22;6803;45.264;5.468;2022-08-19T09:32:32;19.60;99.90
13462;DHT22;6803;45.264;5.468;2022-08-19T09:35:04;19.60;99.90
13462;DHT22;6803;45.264;5.468;2022-08-19T09:37:37;19.50;99.90
13462;DHT22;6803;45.264;5.468;2022-08-19T09:40:10;19.50;99.90
13462;DHT22;6803;45.264;5.468;2022-08-19T09:42:43;19.60;99.90
13462;DHT22;6803;45.264;5.468;2022-08-19T09:45:19;19.60;99.90
13462;DHT22;6803;45.264;5.468;2022-08-19T09:47:52;19.80;99.90
13462;DHT22;6803;45.264;5.468;2022-08-19T09:50:24;19.90;99.90
13462;DHT22;6803;45.264;5.468;2022-08-19T09:52:55;19.90;99.90
13462;DHT22;6803;45.264;5.468;2022-08-19T09:55:27;19.90;99.90
13462;DHT22;6803;45.264;5.468;2022-08-19T09:58:00;19.90;99.90
13462;DHT22;6803;45.264;5.468;2022-08-19T10:00:32;19.90;99.90
13462;DHT22;6803;45.264;5.468;2022-08-19T10:03:02;19.90;99.90
13462;DHT22;6803;45.264;5.468;2022-08-19T10:05:35;20.10;99.90
13462;DHT22;6803;45.264;5.468;2022-08-19T10:08:22;20.40;99.90
13462;DHT22;6803;45.264;5.468;2022-08-19T10:10:55;20.80;99.90
13462;DHT22;6803;45.264;5.468;2022-08-19T10:13:29;20.80;99.90
13462;DHT22;6803;45.264;5.468;2022-08-19T10:16:07;20.70;99.90
13462;DHT22;6803;45.264;5.468;2022-08-19T10:18:38;20.70;99.90
13462;DHT22;6803;45.264;5.468;2022-08-19T10:21:15;20.70;99.90
13462;DHT22;6803;45.264;5.468;2022-08-19T10:23:48;20.80;99.90
13462;DHT22;6803;45.264;5.468;2022-08-19T10:26:23;20.90;99.90
13462;DHT22;6803;45.264;5.468;2022-08-19T10:28:55;20.80;99.90
13462;DHT22;6803;45.264;5.468;2022-08-19T10:31:29;20.80;99.90
13462;DHT22;6803;45.264;5.468;2022-08-19T10:34:02;21.00;99.90
13462;DHT22;6803;45.264;5.468;2022-08-19T10:36:36;21.10;99.90
13462;DHT22;6803;45.264;5.468;2022-08-19T10:39:10;21.50;99.90
13462;DHT22;6803;45.264;5.468;2022-08-19T10:41:42;21.60;99.90
13462;DHT22;6803;45.264;5.468;2022-08-19T10:44:13;21.50;99.90
13462;DHT22;6803;45.264;5.468;2022-08-19T10:46:46;21.50;99.90
13462;DHT22;6803;45.264;5.468;2022-08-19T10:49:18;21.50;99.90
13462;DHT22;6803;45.264;5.468;2022-08-19T10:51:50;21.50;99.90
13462;DHT22;6803;45.264;5.468;2022-08-19T10:54:40;21.50;99.90
13462;DHT22;6803;45.264;5.468;2022-08-19T10:57:32;21.40;99.90
13462;DHT22;6803;45.264;5.468;2022-08-19T11:00:07;21.10;99.90
13462;DHT22;6803;45.264;5.468;2022-08-19T11:02:38;21.10;99.90
13462;DHT22;6803;45.264;5.468;2022-08-19T11:05:11;21.40;99.90
13462;DHT22;6803;45.264;5.468;2022-08-19T11:07:43;21.50;99.90
13462;DHT22;6803;45.264;5.468;2022-08-19T11:10:15;21.40;99.90
13462;DHT22;6803;45.264;5.468;2022-08-19T11:12:50;21.30;99.90
13462;DHT22;6803;45.264;5.468;2022-08-19T11:15:23;21.30;99.90
13462;DHT22;6803;45.264;5.468;2022-08-19T11:17:54;21.50;99.90
13462;DHT22;6803;45.264;5.468;2022-08-19T11:20:26;21.60;99.90
13462;DHT22;6803;45.264;5.468;2022-08-19T11:22:57;21.90;99.90
13462;DHT22;6803;45.264;5.468;2022-08-19T11:25:28;21.90;99.90
13462;DHT22;6803;45.264;5.468;2022-08-19T11:27:59;21.60;99.90
13462;DHT22;6803;45.264;5.468;2022-08-19T11:30:30;21.80;99.90
13462;DHT22;6803;45.264;5.468;2022-08-19T11:33:02;22.20;99.90
13462;DHT22;6803;45.264;5.468;2022-08-19T11:35:33;21.80;99.90
13462;DHT22;6803;45.264;5.468;2022-08-19T11:38:04;21.80;99.90
13462;DHT22;6803;45.264;5.468;2022-08-19T11:40:37;22.40;99.90
13462;DHT22;6803;45.264;5.468;2022-08-19T11:43:08;22.40;99.90
13462;DHT22;6803;45.264;5.468;2022-08-19T11:45:39;21.70;99.90
13462;DHT22;6803;45.264;5.468;2022-08-19T11:48:10;21.20;99.90
13462;DHT22;6803;45.264;5.468;2022-08-19T11:50:43;21.10;99.90
13462;DHT22;6803;45.264;5.468;2022-08-19T11:53:15;21.00;99.90
13462;DHT22;6803;45.264;5.468;2022-08-19T11:55:46;20.80;99.90
13462;DHT22;6803;45.264;5.468;2022-08-19T11:58:18;20.70;99.90
13462;DHT22;6803;45.264;5.468;2022-08-19T12:00:49;20.60;99.90
13462;DHT22;6803;45.264;5.468;2022-08-19T12:03:20;20.70;99.90
13462;DHT22;6803;45.264;5.468;2022-08-19T12:05:51;20.70;99.90
13462;DHT22;6803;45.264;5.468;2022-08-19T12:08:23;20.50;99.90
13462;DHT22;6803;45.264;5.468;2022-08-19T12:10:54;20.60;99.90
13462;DHT22;6803;45.264;5.468;2022-08-19T12:13:26;20.80;99.90
13462;DHT22;6803;45.264;5.468;2022-08-19T12:15:57;20.70;99.90
13462;DHT22;6803;45.264;5.468;2022-08-19T12:18:28;20.80;99.90
13462;DHT22;6803;45.264;5.468;2022-08-19T12:20:59;20.90;99.90
13462;DHT22;6803;45.264;5.468;2022-08-19T12:23:30;21.00;99.90
13462;DHT22;6803;45.264;5.468;2022-08-19T12:26:01;21.30;99.90
13462;DHT22;6803;45.264;5.468;2022-08-19T12:28:32;21.40;99.90
13462;DHT22;6803;45.264;5.468;2022-08-19T12:31:03;20.90;99.90
13462;DHT22;6803;45.264;5.468;2022-08-19T12:33:34;20.80;99.90
13462;DHT22;6803;45.264;5.468;2022-08-19T12:36:08;20.90;99.90
13462;DHT22;6803;45.264;5.468;2022-08-19T12:38:40;20.90;99.90
13462;DHT22;6803;45.264;5.468;2022-08-19T12:41:12;20.90;99.90
13462;DHT22;6803;45.264;5.468;2022-08-19T12:43:45;20.80;99.90
13462;DHT22;6803;45.264;5.468;2022-08-19T12:46:18;20.80;99.90
13462;DHT22;6803;45.264;5.468;2022-08-19T12:48:51;20.80;99.90
13462;DHT22;6803;45.264;5.468;2022-08-19T12:51:24;20.60;99.90
13462;DHT22;6803;45.264;5.468;2022-08-19T12:53:56;20.70;99.90
13462;DHT22;6803;45.264;5.468;2022-08-19T12:56:26;20.90;99.90
13462;DHT22;6803;45.264;5.468;2022-08-19T12:59:00;21.10;99.90
13462;DHT22;6803;45.264;5.468;2022-08-19T13:01:30;21.10;99.90
13462;DHT22;6803;45.264;5.468;2022-08-19T13:04:02;21.00;99.90
13462;DHT22;6803;45.264;5.468;2022-08-19T13:06:32;21.20;99.90
13462;DHT22;6803;45.264;5.468;2022-08-19T13:09:03;21.40;99.90
13462;DHT22;6803;45.264;5.468;2022-08-19T13:11:35;21.10;99.90
13462;DHT22;6803;45.264;5.468;2022-08-19T13:14:07;21.10;99.90
13462;DHT22;6803;45.264;5.468;2022-08-19T13:16:38;21.20;99.90
13462;DHT22;6803;45.264;5.468;2022-08-19T13:19:09;21.20;99.90
13462;DHT22;6803;45.264;5.468;2022-08-19T13:21:41;21.30;99.90
13462;DHT22;6803;45.264;5.468;2022-08-19T13:24:12;21.40;99.90
13462;DHT22;6803;45.264;5.468;2022-08-19T13:26:43;21.50;99.90
13462;DHT22;6803;45.264;5.468;2022-08-19T13:29:14;21.60;99.90
13462;DHT22;6803;45.264;5.468;2022-08-19T13:32:02;21.50;99.90
13462;DHT22;6803;45.264;5.468;2022-08-19T13:34:51;21.80;99.90
13462;DHT22;6803;45.264;5.468;2022-08-19T13:37:22;21.90;99.90
13462;DHT22;6803;45.264;5.468;2022-08-19T13:39:54;21.70;99.90
13462;DHT22;6803;45.264;5.468;2022-08-19T13:42:25;21.50;99.90
13462;DHT22;6803;45.264;5.468;2022-08-19T13:44:56;21.50;99.90
13462;DHT22;6803;45.264;5.468;2022-08-19T13:47:27;21.20;99.90
13462;DHT22;6803;45.264;5.468;2022-08-19T13:49:58;21.40;99.90
13462;DHT22;6803;45.264;5.468;2022-08-19T13:52:29;21.00;99.90
13462;DHT22;6803;45.264;5.468;2022-08-19T13:54:59;20.90;99.90
13462;DHT22;6803;45.264;5.468;2022-08-19T13:57:30;20.90;99.90
13462;DHT22;6803;45.264;5.468;2022-08-19T14:00:03;20.80;99.90
13462;DHT22;6803;45.264;5.468;2022-08-19T14:02:34;20.90;99.90
13462;DHT22;6803;45.264;5.468;2022-08-19T14:05:07;21.00;99.90
13462;DHT22;6803;45.264;5.468;2022-08-19T14:07:38;20.90;99.90
13462;DHT22;6803;45.264;5.468;2022-08-19T14:10:12;20.80;99.90
13462;DHT22;6803;45.264;5.468;2022-08-19T14:12:46;20.80;99.90
13462;DHT22;6803;45.264;5.468;2022-08-19T14:15:17;20.90;99.90
13462;DHT22;6803;45.264;5.468;2022-08-19T14:17:48;21.00;99.90
13462;DHT22;6803;45.264;5.468;2022-08-19T14:20:19;21.20;99.90
13462;DHT22;6803;45.264;5.468;2022-08-19T14:22:52;21.30;99.90
13462;DHT22;6803;45.264;5.468;2022-08-19T14:25:26;21.10;99.90
13462;DHT22;6803;45.264;5.468;2022-08-19T14:27:58;21.00;99.90
13462;DHT22;6803;45.264;5.468;2022-08-19T14:30:31;20.90;99.90
13462;DHT22;6803;45.264;5.468;2022-08-19T14:33:03;20.90;99.90
13462;DHT22;6803;45.264;5.468;2022-08-19T14:35:35;20.80;99.90
13462;DHT22;6803;45.264;5.468;2022-08-19T14:38:14;20.70;99.90
13462;DHT22;6803;45.264;5.468;2022-08-19T14:40:39;20.60;99.90
13462;DHT22;6803;45.264;5.468;2022-08-19T14:43:11;20.60;99.90
13462;DHT22;6803;45.264;5.468;2022-08-19T14:45:44;20.50;99.90
13462;DHT22;6803;45.264;5.468;2022-08-19T14:48:15;20.50;99.90
13462;DHT22;6803;45.264;5.468;2022-08-19T14:50:47;20.50;99.90
13462;DHT22;6803;45.264;5.468;2022-08-19T14:53:18;20.60;99.90
13462;DHT22;6803;45.264;5.468;2022-08-19T14:55:48;20.80;99.90
13462;DHT22;6803;45.264;5.468;2022-08-19T14:58:19;21.00;99.90
13462;DHT22;6803;45.264;5.468;2022-08-19T15:00:53;21.20;99.90
13462;DHT22;6803;45.264;5.468;2022-08-19T15:03:24;21.30;99.90
13462;DHT22;6803;45.264;5.468;2022-08-19T15:05:56;21.30;99.90
13462;DHT22;6803;45.264;5.468;2022-08-19T15:08:28;21.60;99.90
13462;DHT22;6803;45.264;5.468;2022-08-19T15:11:00;21.60;99.90
13462;DHT22;6803;45.264;5.468;2022-08-19T15:13:31;21.60;99.90
13462;DHT22;6803;45.264;5.468;2022-08-19T15:16:03;21.90;99.90
13462;DHT22;6803;45.264;5.468;2022-08-19T15:18:36;22.10;99.90
13462;DHT22;6803;45.264;5.468;2022-08-19T15:21:07;22.70;99.90
13462;DHT22;6803;45.264;5.468;2022-08-19T15:23:38;23.50;99.90
13462;DHT22;6803;45.264;5.468;2022-08-19T15:26:11;24.00;99.90
13462;DHT22;6803;45.264;5.468;2022-08-19T15:28:44;24.60;99.90
13462;DHT22;6803;45.264;5.468;2022-08-19T15:31:17;24.20;99.90
13462;DHT22;6803;45.264;5.468;2022-08-19T15:33:50;24.70;99.90
13462;DHT22;6803;45.264;5.468;2022-08-19T15:36:21;25.00;99.90
13462;DHT22;6803;45.264;5.468;2022-08-19T15:38:52;25.00;99.90
13462;DHT22;6803;45.264;5.468;2022-08-19T15:41:25;25.20;99.90
13462;DHT22;6803;45.264;5.468;2022-08-19T15:43:59;24.30;99.90
13462;DHT22;6803;45.264;5.468;2022-08-19T15:46:32;23.60;99.90
13462;DHT22;6803;45.264;5.468;2022-08-19T15:49:05;23.40;99.90
13462;DHT22;6803;45.264;5.468;2022-08-19T15:51:36;22.90;99.90
13462;DHT22;6803;45.264;5.468;2022-08-19T15:54:09;22.90;99.90
13462;DHT22;6803;45.264;5.468;2022-08-19T15:56:41;22.40;99.90
13462;DHT22;6803;45.264;5.468;2022-08-19T15:59:18;22.40;99.90
13462;DHT22;6803;45.264;5.468;2022-08-19T16:02:08;22.40;99.90
13462;DHT22;6803;45.264;5.468;2022-08-19T16:04:58;22.20;99.90
13462;DHT22;6803;45.264;5.468;2022-08-19T16:07:47;22.30;99.90
13462;DHT22;6803;45.264;5.468;2022-08-19T16:10:19;22.00;99.90
13462;DHT22;6803;45.264;5.468;2022-08-19T16:12:52;21.90;99.90
13462;DHT22;6803;45.264;5.468;2022-08-19T16:15:23;21.80;99.90
13462;DHT22;6803;45.264;5.468;2022-08-19T16:17:56;21.80;99.90
13462;DHT22;6803;45.264;5.468;2022-08-19T16:20:27;21.60;99.90
13462;DHT22;6803;45.264;5.468;2022-08-19T16:22:59;21.70;99.90
13462;DHT22;6803;45.264;5.468;2022-08-19T16:25:32;21.90;99.90
13462;DHT22;6803;45.264;5.468;2022-08-19T16:28:03;21.70;99.90
13462;DHT22;6803;45.264;5.468;2022-08-19T16:30:37;21.80;99.90
13462;DHT22;6803;45.264;5.468;2022-08-19T16:33:09;21.70;99.90